Blue Oak Ranch Reserve, California Weather observations

Data are for 10 minute period ending at time listed.
 Day   Time   Solar   Ave.   Ave.  Ave.  Vector  Max.   Baro.   Total    
  of    of     Rad.   Air    Rel.  Wind   Wind   Wind  Press.  Precip.   
Year   Day            Temp.  Hum.  Speed  Dir.   Gust                    
2016   (PST)  Kw/m2    F      %     mph   deg.    mph    mb.     in.     
-------------------------------------------------------------------------
 273    3:00   0.00   54.3    60    1.0    56     2.0   948.4    0.00 
 273    3:10   0.00   54.5    58    0.7    26     2.6   948.5    0.00 
 273    3:20   0.00   55.0    59    0.2     4     1.7   948.5    0.00 
 273    3:30   0.00   54.3    58    0.4   105     1.2   948.5    0.00 
 273    3:40   0.00   53.8    57    0.7    98     1.8   948.6    0.00 
 273    3:50   0.00   54.1    55    1.3    45     2.6   948.6    0.00 
 273    4:00   0.00   53.5    57    0.7   290     2.0   948.7    0.00 
 273    4:10   0.00   54.0    55    0.6   268     1.6   948.7    0.00 
 273    4:20   0.00   54.0    54    0.3    92     1.2   948.8    0.00 
 273    4:30   0.00   53.9    53    0.5    67     1.8   948.9    0.00 
 273    4:40   0.00   53.5    54    0.7   310     2.5   948.9    0.00 
 273    4:50   0.00   53.1    55    1.4   327     2.6   949.0    0.00 
 273    5:00   0.00   52.7    53    1.3    60     2.7   949.0    0.00 
 273    5:10   0.00   53.3    51    0.0   256     0.1   949.1    0.00 
 273    5:20   0.00   53.5    51    0.3   270     1.0   949.2    0.00 
 273    5:30   0.00   53.1    52    0.4    22     1.2   949.4    0.00 
 273    5:40   0.00   53.0    51    0.8    42     2.0   949.5    0.00 
 273    5:50   0.00   53.1    52    0.0     0     0.0   949.6    0.00 
 273    6:00   0.00   53.3    50    0.0     0     0.0   949.7    0.00 
 273    6:10   0.01   53.7    49    0.1   258     1.1   949.8    0.00 
 273    6:20   0.01   53.3    50    0.4   274     0.9   949.9    0.00 
 273    6:30   0.01   53.5    50    0.1   318     0.9   950.0    0.00 
 273    6:40   0.01   53.6    49    0.2   203     1.0   950.0    0.00 
 273    6:50   0.03   53.8    50    0.1   271     0.7   950.1    0.00 
 273    7:00   0.07   54.3    49    0.1   184     0.7   950.2    0.00 
 273    7:10   0.14   56.7    46    0.0   144     0.4   950.2    0.00 
 273    7:20   0.17   62.9    40    0.0     0     0.0   950.1    0.00 
 273    7:30   0.19   66.8    37    0.5    85     1.1   950.1    0.00 
 273    7:40   0.22   69.6    34    0.0    80     0.4   950.0    0.00 
 273    7:50   0.25   73.2    29    0.4   148     1.5   950.0    0.00 
 273    8:00   0.28   75.0    26    0.6   130     1.6   950.2    0.00 
 273    8:10   0.30   74.7    26    1.0   154     2.2   950.5    0.00 
 273    8:20   0.33   74.4    26    1.6   158     3.1   950.9    0.00 
 273    8:30   0.36   74.9    26    1.5   166     3.6   951.0    0.00 
 273    8:40   0.39   75.7    25    2.0   131     3.7   951.2    0.00 
 273    8:50   0.41   76.2    24    2.2   143     3.9   951.3    0.00 
 273    9:00   0.44   78.0    23    1.7   180     3.8   951.4    0.00 
 273    9:10   0.46   78.5    22    2.4   163     5.8   951.4    0.00 
 273    9:20   0.48   79.8    23    3.8   236     6.7   951.4    0.00 
 273    9:30   0.50   79.9    23    3.6   258     6.2   951.4    0.00 
 273    9:40   0.53   80.1    22    4.7   262     8.1   951.4    0.00 
 273    9:50   0.55   79.8    22    3.7   251     7.8   951.3    0.00 
 273   10:00   0.56   81.1    22    4.5   250     8.7   951.3    0.00 
 273   10:10   0.58   79.8    24    4.8   233     8.0   951.4    0.00 
 273   10:20   0.60   79.4    25    4.2   237     7.5   951.4    0.00 
 273   10:30   0.61   78.8    27    3.9   245     8.4   951.4    0.00 
 273   10:40   0.63   78.8    26    4.4   265     7.7   951.4    0.00 
 273   10:50   0.64   79.1    23    5.6   250     8.8   951.4    0.00 
 273   11:00   0.65   79.0    24    5.8   233     9.4   951.4    0.00 
 273   11:10   0.66   78.5    28    5.0   244     9.9   951.4    0.00 
 273   11:20   0.66   78.7    32    5.6   259     8.7   951.4    0.00 
 273   11:30   0.67   77.8    33    4.8   252    10.0   951.4    0.00 
 273   11:40   0.67   79.4    31    4.3   240     7.9   951.4    0.00 
 273   11:50   0.67   77.9    33    5.6   231     9.9   951.4    0.00 
 273   12:00   0.66   78.3    34    4.9   238     8.7   951.4    0.00 
 273   12:10   0.66   78.9    34    4.6   247     9.1   951.3    0.00 
 273   12:20   0.66   78.7    33    5.3   244     9.6   951.3    0.00 
 273   12:30   0.66   78.0    34    6.0   231     9.6   951.3    0.00 
 273   12:40   0.66   76.8    36    6.2   229     9.3   951.2    0.00 
 273   12:50   0.62   77.1    36    5.1   237     8.3   951.1    0.00 
 273   13:00   0.63   78.3    37    5.9   245     8.8   951.1    0.00 
 273   13:10   0.62   79.1    38    4.4   239     8.1   951.0    0.00 
 273   13:20   0.62   78.6    38    6.3   228    10.2   950.9    0.00 
 273   13:30   0.61   78.5    38    5.4   245     8.4   950.9    0.00 
 273   13:40   0.60   78.0    40    6.1   234     9.8   950.9    0.00 
 273   13:50   0.58   78.0    40    4.3   250     8.0   950.9    0.00 
 273   14:00   0.57   79.2    37    5.2   239     8.2   950.8    0.00 
 273   14:10   0.55   78.8    38    5.0   235     8.3   950.7    0.00 
 273   14:20   0.53   78.6    38    4.7   237     9.1   950.7    0.00 
 273   14:30   0.51   78.3    40    5.7   252    10.2   950.7    0.00 
 273   14:40   0.49   77.2    42    5.5   247     9.9   950.7    0.00 
 273   14:50   0.47   77.9    40    5.1   259    10.3   950.6    0.00 
 273   15:00   0.44   78.9    34    5.9   260     9.8   950.6    0.00 
 273   15:10   0.41   77.5    34    6.0   260     9.2   950.6    0.00 
 273   15:20   0.39   77.2    39    5.6   253    12.8   950.7    0.00 
 273   15:30   0.37   75.3    43    5.2   252     9.1   950.7    0.00 
 273   15:40   0.34   75.0    41    5.7   259     9.6   950.8    0.00 
 273   15:50   0.31   75.5    36    5.9   271    10.7   950.8    0.00 
 273   16:00   0.29   75.8    24    6.9   287    10.8   950.8    0.00 
 273   16:10   0.26   76.2    21    6.6   285    10.7   950.8    0.00 
 273   16:20   0.23   75.5    20    6.1   267     9.3   950.7    0.00 
 273   16:30   0.21   75.3    21    6.5   276    10.2   950.7    0.00 
 273   16:40   0.18   74.2    18    6.8   279    10.1   950.7    0.00 
 273   16:50   0.15   73.6    14    7.4   284    10.4   950.7    0.00 
 273   17:00   0.13   73.2    19    5.8   278     9.6   950.8    0.00 
 273   17:10   0.10   72.1    27    4.0   270     6.3   950.8    0.00 
 273   17:20   0.08   71.9    21    5.6   281     7.7   950.7    0.00 
 273   17:30   0.06   70.8    18    5.0   279     7.7   950.8    0.00 
 273   17:40   0.02   68.2    44    3.1   242     5.8   950.7    0.00 
 273   17:50   0.01   65.3    42    0.4    64     1.2   950.6    0.00 
 273   18:00   0.01   63.4    33    1.1    68     1.8   950.4    0.00 
 273   18:10   0.00   62.2    27    0.4   316     1.5   950.3    0.00 
 273   18:20   0.00   61.1    30    1.0    16     2.6   950.2    0.00 
 273   18:30   0.00   60.1    26    0.3     8     1.5   950.2    0.00 
 273   18:40   0.00   59.3    34    0.4   322     1.4   950.2    0.00 
 273   18:50   0.00   58.5    33    0.5    69     1.3   950.2    0.00 
 273   19:00   0.00   58.1    31    1.4   288     3.0   950.3    0.00 
 273   19:10   0.00   57.4    30    0.8    30     2.3   950.5    0.00 
 273   19:20   0.00   56.9    28    0.4   282     1.8   950.6    0.00 
 273   19:30   0.00   56.9    28    0.0     0     0.0   950.7    0.00 
 273   19:40   0.00   56.9    27    0.4    35     1.2   950.8    0.00 
 273   19:50   0.00   56.9    28    0.9   307     2.5   950.8    0.00 
 273   20:00   0.00   56.4    30    0.4   288     2.1   950.7    0.00 
 273   20:10   0.00   56.8    32    0.2   301     1.4   950.8    0.00 
 273   20:20   0.00   56.6    34    0.7   305     1.5   950.8    0.00 
 273   20:30   0.00   56.2    40    0.0    51     0.9   950.9    0.00 
 273   20:40   0.00   56.5    45    0.0    51     0.9   951.0    0.00 
 273   20:50   0.00   56.5    46    0.2   245     1.0   950.9    0.00 
 273   21:00   0.00   56.3    46    0.1   272     0.7   950.9    0.00 
 273   21:10   0.00   55.8    47    0.6   295     1.5   950.9    0.00 
 273   21:20   0.00   56.0    52    0.0   309     0.5   951.0    0.00 
 273   21:30   0.00   56.1    52    0.4   299     1.5   950.9    0.00 
 273   21:40   0.00   55.6    53    0.5   299     1.2   951.0    0.00 
 273   21:50   0.00   56.0    54    0.2   292     0.9   951.0    0.00 
 273   22:00   0.00   55.6    55    0.2    58     1.1   951.0    0.00 
 273   22:10   0.00   55.8    56    0.1   257     0.7   951.0    0.00 
 273   22:20   0.00   55.6    56    0.7   255     1.5   951.0    0.00 
 273   22:30   0.00   55.2    57    1.8   292     3.5   951.0    0.00 
 273   22:40   0.00   55.1    58    2.8   288     4.0   951.1    0.00 
 273   22:50   0.00   55.1    58    0.9   296     3.4   951.1    0.00 
 273   23:00   0.00   54.8    58    0.4    98     1.2   951.1    0.00 
 273   23:10   0.00   53.5    59    2.0   283     3.9   951.2    0.00 
 273   23:20   0.00   53.7    64    0.8   282     2.6   951.2    0.00 
 273   23:30   0.00   53.2    64    0.6    79     1.4   951.2    0.00 
 273   23:40   0.00   52.4    65    0.0     0     0.0   951.1    0.00 
 273   23:50   0.00   51.8    65    1.2   293     2.7   951.0    0.00 
 274    0:00   0.00   51.0    66    0.9   302     2.3   951.1    0.00 
 274    0:10   0.00   51.2    67    0.5    78     1.7   951.2    0.00 
 274    0:20   0.00   51.4    65    0.4   285     1.6   951.1    0.00 
 274    0:30   0.00   50.9    65    0.1   275     1.2   951.1    0.00 
 274    0:40   0.00   50.9    66    0.1   282     0.7   951.2    0.00 
 274    0:50   0.00   51.0    65    0.0     0     0.0   951.2    0.00 
 274    1:00   0.00   51.1    64    0.1   282     1.1   951.2    0.00 
 274    1:10   0.00   51.0    62    0.1   309     0.7   951.2    0.00 
 274    1:20   0.00   50.7    62    0.7   295     2.1   951.2    0.00 
 274    1:30   0.00   50.4    61    0.1    18     0.7   951.2    0.00 
 274    1:40   0.00   50.2    57    0.3    68     1.1   951.2    0.00 
 274    1:50   0.00   50.5    56    0.0     0     0.0   951.2    0.00 
 274    2:00   0.00   50.8    56    0.0    29     0.7   951.2    0.00 
 274    2:10   0.00   50.8    52    0.4   287     1.8   951.2    0.00 
 274    2:20   0.00   50.2    53    0.7   295     1.3   951.2    0.00 
 274    2:30   0.00   50.2    52    0.7   295     2.1   951.2    0.00 
 274    2:40   0.00   50.3    52    0.2    86     1.0   951.2    0.00 
 274    2:50   0.00   50.3    52    0.3   266     1.7   951.1    0.00 

Return to Blue Oak Ranch Reserve graphs page.


Western Regional Climate Center,wrcc@dri.edu